sensor_id;sensor_type;location;lat;lon;timestamp;P1;durP1;ratioP1;P2;durP2;ratioP2
37973;SDS011;23796;51.458;7.000;2022-08-24T00:01:43;5.05;;;2.00;;
37973;SDS011;23796;51.458;7.000;2022-08-24T00:04:11;4.72;;;2.08;;
37973;SDS011;23796;51.458;7.000;2022-08-24T00:06:37;6.60;;;2.30;;
37973;SDS011;23796;51.458;7.000;2022-08-24T00:09:02;5.50;;;3.40;;
37973;SDS011;23796;51.458;7.000;2022-08-24T00:11:29;5.38;;;2.85;;
37973;SDS011;23796;51.458;7.000;2022-08-24T00:13:59;6.30;;;2.90;;
37973;SDS011;23796;51.458;7.000;2022-08-24T00:16:25;6.03;;;2.45;;
37973;SDS011;23796;51.458;7.000;2022-08-24T00:18:51;5.63;;;2.83;;
37973;SDS011;23796;51.458;7.000;2022-08-24T00:21:19;5.93;;;2.50;;
37973;SDS011;23796;51.458;7.000;2022-08-24T00:23:44;6.07;;;2.42;;
37973;SDS011;23796;51.458;7.000;2022-08-24T00:26:14;5.38;;;2.70;;
37973;SDS011;23796;51.458;7.000;2022-08-24T00:28:40;7.30;;;2.75;;
37973;SDS011;23796;51.458;7.000;2022-08-24T00:31:06;4.95;;;2.22;;
37973;SDS011;23796;51.458;7.000;2022-08-24T00:33:35;6.22;;;2.88;;
37973;SDS011;23796;51.458;7.000;2022-08-24T00:36:07;4.72;;;2.08;;
37973;SDS011;23796;51.458;7.000;2022-08-24T00:38:32;4.82;;;2.42;;
37973;SDS011;23796;51.458;7.000;2022-08-24T00:41:00;5.05;;;2.38;;
37973;SDS011;23796;51.458;7.000;2022-08-24T00:43:26;4.57;;;2.00;;
37973;SDS011;23796;51.458;7.000;2022-08-24T00:46:13;4.53;;;2.45;;
37973;SDS011;23796;51.458;7.000;2022-08-24T00:53:43;7.65;;;2.83;;
37973;SDS011;23796;51.458;7.000;2022-08-24T00:56:17;6.90;;;2.80;;
37973;SDS011;23796;51.458;7.000;2022-08-24T00:58:51;4.88;;;2.40;;
37973;SDS011;23796;51.458;7.000;2022-08-24T01:01:23;5.63;;;2.40;;
37973;SDS011;23796;51.458;7.000;2022-08-24T01:03:54;5.70;;;2.60;;
37973;SDS011;23796;51.458;7.000;2022-08-24T01:06:24;15.25;;;3.72;;
37973;SDS011;23796;51.458;7.000;2022-08-24T01:08:53;6.13;;;3.20;;
37973;SDS011;23796;51.458;7.000;2022-08-24T01:11:20;6.47;;;2.45;;
37973;SDS011;23796;51.458;7.000;2022-08-24T01:16:17;5.88;;;2.83;;
37973;SDS011;23796;51.458;7.000;2022-08-24T01:19:05;6.28;;;2.60;;
37973;SDS011;23796;51.458;7.000;2022-08-24T01:21:41;5.47;;;2.65;;
37973;SDS011;23796;51.458;7.000;2022-08-24T01:24:15;7.28;;;2.28;;
37973;SDS011;23796;51.458;7.000;2022-08-24T01:26:43;6.22;;;2.70;;
37973;SDS011;23796;51.458;7.000;2022-08-24T01:29:24;6.70;;;2.58;;
37973;SDS011;23796;51.458;7.000;2022-08-24T01:31:57;5.97;;;2.40;;
37973;SDS011;23796;51.458;7.000;2022-08-24T01:34:25;5.40;;;2.50;;
37973;SDS011;23796;51.458;7.000;2022-08-24T01:36:57;4.88;;;2.53;;
37973;SDS011;23796;51.458;7.000;2022-08-24T01:39:27;6.63;;;2.72;;
37973;SDS011;23796;51.458;7.000;2022-08-24T01:41:58;4.00;;;2.00;;
37973;SDS011;23796;51.458;7.000;2022-08-24T01:44:25;5.75;;;2.28;;
37973;SDS011;23796;51.458;7.000;2022-08-24T01:46:55;4.90;;;1.88;;
37973;SDS011;23796;51.458;7.000;2022-08-24T01:49:23;3.88;;;2.10;;
37973;SDS011;23796;51.458;7.000;2022-08-24T01:51:50;3.85;;;1.73;;
37973;SDS011;23796;51.458;7.000;2022-08-24T01:54:16;4.78;;;1.77;;
37973;SDS011;23796;51.458;7.000;2022-08-24T01:56:41;6.72;;;2.03;;
37973;SDS011;23796;51.458;7.000;2022-08-24T01:59:08;5.15;;;1.77;;
37973;SDS011;23796;51.458;7.000;2022-08-24T02:01:36;6.50;;;2.13;;
37973;SDS011;23796;51.458;7.000;2022-08-24T02:04:08;5.50;;;2.35;;
37973;SDS011;23796;51.458;7.000;2022-08-24T02:06:34;5.63;;;2.60;;
37973;SDS011;23796;51.458;7.000;2022-08-24T02:09:01;6.05;;;2.10;;
37973;SDS011;23796;51.458;7.000;2022-08-24T02:11:30;4.55;;;1.92;;
37973;SDS011;23796;51.458;7.000;2022-08-24T02:14:00;6.07;;;2.92;;
37973;SDS011;23796;51.458;7.000;2022-08-24T02:16:27;5.15;;;2.55;;
37973;SDS011;23796;51.458;7.000;2022-08-24T02:18:53;6.50;;;2.78;;
37973;SDS011;23796;51.458;7.000;2022-08-24T02:21:18;6.38;;;2.60;;
37973;SDS011;23796;51.458;7.000;2022-08-24T02:23:44;4.38;;;2.10;;
37973;SDS011;23796;51.458;7.000;2022-08-24T02:26:14;5.25;;;2.42;;
37973;SDS011;23796;51.458;7.000;2022-08-24T02:28:40;4.13;;;2.17;;
37973;SDS011;23796;51.458;7.000;2022-08-24T02:31:06;7.07;;;2.15;;
37973;SDS011;23796;51.458;7.000;2022-08-24T02:33:36;5.80;;;2.35;;
37973;SDS011;23796;51.458;7.000;2022-08-24T02:36:03;6.88;;;2.17;;
37973;SDS011;23796;51.458;7.000;2022-08-24T02:38:32;4.45;;;1.90;;
37973;SDS011;23796;51.458;7.000;2022-08-24T02:41:00;4.03;;;1.67;;
37973;SDS011;23796;51.458;7.000;2022-08-24T02:43:30;4.13;;;1.90;;
37973;SDS011;23796;51.458;7.000;2022-08-24T02:45:56;5.28;;;2.30;;
37973;SDS011;23796;51.458;7.000;2022-08-24T02:48:22;5.03;;;2.50;;
37973;SDS011;23796;51.458;7.000;2022-08-24T02:50:50;4.88;;;1.90;;
37973;SDS011;23796;51.458;7.000;2022-08-24T02:53:17;6.55;;;2.50;;
37973;SDS011;23796;51.458;7.000;2022-08-24T02:55:44;6.93;;;1.95;;
37973;SDS011;23796;51.458;7.000;2022-08-24T02:58:11;5.68;;;2.10;;
37973;SDS011;23796;51.458;7.000;2022-08-24T03:00:39;5.97;;;2.20;;
37973;SDS011;23796;51.458;7.000;2022-08-24T03:03:08;6.15;;;2.15;;
37973;SDS011;23796;51.458;7.000;2022-08-24T03:05:36;5.47;;;2.33;;
37973;SDS011;23796;51.458;7.000;2022-08-24T03:08:07;4.55;;;2.15;;
37973;SDS011;23796;51.458;7.000;2022-08-24T03:10:35;5.22;;;1.98;;
37973;SDS011;23796;51.458;7.000;2022-08-24T03:13:03;4.30;;;2.38;;
37973;SDS011;23796;51.458;7.000;2022-08-24T03:15:31;6.28;;;1.98;;
37973;SDS011;23796;51.458;7.000;2022-08-24T03:17:57;5.72;;;1.77;;
37973;SDS011;23796;51.458;7.000;2022-08-24T03:20:25;4.10;;;2.13;;
37973;SDS011;23796;51.458;7.000;2022-08-24T03:22:51;7.30;;;2.55;;
37973;SDS011;23796;51.458;7.000;2022-08-24T03:25:17;5.78;;;2.30;;
37973;SDS011;23796;51.458;7.000;2022-08-24T03:27:45;6.07;;;2.83;;
37973;SDS011;23796;51.458;7.000;2022-08-24T03:30:15;6.18;;;2.38;;
37973;SDS011;23796;51.458;7.000;2022-08-24T03:32:44;5.03;;;2.65;;
37973;SDS011;23796;51.458;7.000;2022-08-24T03:35:12;6.10;;;2.28;;
37973;SDS011;23796;51.458;7.000;2022-08-24T03:37:42;6.20;;;2.85;;
37973;SDS011;23796;51.458;7.000;2022-08-24T03:40:09;7.75;;;2.92;;
37973;SDS011;23796;51.458;7.000;2022-08-24T03:42:35;7.80;;;3.28;;
37973;SDS011;23796;51.458;7.000;2022-08-24T03:45:04;8.70;;;3.35;;
37973;SDS011;23796;51.458;7.000;2022-08-24T03:47:30;9.52;;;3.58;;
37973;SDS011;23796;51.458;7.000;2022-08-24T03:49:56;6.80;;;3.03;;
37973;SDS011;23796;51.458;7.000;2022-08-24T03:52:22;8.07;;;3.90;;
37973;SDS011;23796;51.458;7.000;2022-08-24T03:54:50;7.32;;;3.28;;
37973;SDS011;23796;51.458;7.000;2022-08-24T03:57:18;7.20;;;3.10;;
37973;SDS011;23796;51.458;7.000;2022-08-24T03:59:44;8.93;;;3.70;;
37973;SDS011;23796;51.458;7.000;2022-08-24T04:02:12;9.38;;;3.63;;
37973;SDS011;23796;51.458;7.000;2022-08-24T04:04:38;9.18;;;3.75;;
37973;SDS011;23796;51.458;7.000;2022-08-24T04:07:08;6.65;;;3.50;;
37973;SDS011;23796;51.458;7.000;2022-08-24T04:09:36;7.10;;;3.30;;
37973;SDS011;23796;51.458;7.000;2022-08-24T04:12:04;9.95;;;3.92;;
37973;SDS011;23796;51.458;7.000;2022-08-24T04:14:30;6.65;;;3.25;;
37973;SDS011;23796;51.458;7.000;2022-08-24T04:16:58;9.82;;;4.07;;
37973;SDS011;23796;51.458;7.000;2022-08-24T04:19:25;10.02;;;3.83;;
37973;SDS011;23796;51.458;7.000;2022-08-24T04:21:51;7.95;;;3.72;;
37973;SDS011;23796;51.458;7.000;2022-08-24T04:24:16;8.20;;;3.83;;
37973;SDS011;23796;51.458;7.000;2022-08-24T04:26:46;6.85;;;3.45;;
37973;SDS011;23796;51.458;7.000;2022-08-24T04:29:13;9.45;;;4.15;;
37973;SDS011;23796;51.458;7.000;2022-08-24T04:31:40;8.85;;;3.63;;
37973;SDS011;23796;51.458;7.000;2022-08-24T04:34:07;9.52;;;3.88;;
37973;SDS011;23796;51.458;7.000;2022-08-24T04:36:36;6.20;;;2.92;;
37973;SDS011;23796;51.458;7.000;2022-08-24T04:39:03;9.02;;;3.25;;
37973;SDS011;23796;51.458;7.000;2022-08-24T04:41:30;7.10;;;2.88;;
37973;SDS011;23796;51.458;7.000;2022-08-24T04:43:55;7.68;;;2.85;;
37973;SDS011;23796;51.458;7.000;2022-08-24T04:46:23;8.48;;;2.53;;
37973;SDS011;23796;51.458;7.000;2022-08-24T04:48:51;6.55;;;3.53;;
37973;SDS011;23796;51.458;7.000;2022-08-24T04:51:18;6.15;;;2.95;;
37973;SDS011;23796;51.458;7.000;2022-08-24T04:53:44;5.65;;;2.90;;
37973;SDS011;23796;51.458;7.000;2022-08-24T04:56:13;5.97;;;3.28;;
37973;SDS011;23796;51.458;7.000;2022-08-24T04:58:44;5.63;;;3.60;;
37973;SDS011;23796;51.458;7.000;2022-08-24T05:01:16;6.97;;;3.47;;
37973;SDS011;23796;51.458;7.000;2022-08-24T05:03:46;7.78;;;3.83;;
37973;SDS011;23796;51.458;7.000;2022-08-24T05:06:13;7.30;;;3.50;;
37973;SDS011;23796;51.458;7.000;2022-08-24T05:08:40;6.47;;;2.58;;
37973;SDS011;23796;51.458;7.000;2022-08-24T05:11:11;5.95;;;3.15;;
37973;SDS011;23796;51.458;7.000;2022-08-24T05:13:38;9.65;;;4.05;;
37973;SDS011;23796;51.458;7.000;2022-08-24T05:16:07;6.60;;;4.03;;
37973;SDS011;23796;51.458;7.000;2022-08-24T05:18:34;8.73;;;3.38;;
37973;SDS011;23796;51.458;7.000;2022-08-24T05:21:01;7.97;;;3.88;;
37973;SDS011;23796;51.458;7.000;2022-08-24T05:23:32;8.52;;;3.25;;
37973;SDS011;23796;51.458;7.000;2022-08-24T05:26:03;5.95;;;3.40;;
37973;SDS011;23796;51.458;7.000;2022-08-24T05:28:30;8.20;;;3.97;;
37973;SDS011;23796;51.458;7.000;2022-08-24T05:30:55;12.57;;;4.78;;
37973;SDS011;23796;51.458;7.000;2022-08-24T05:33:21;10.88;;;4.90;;
37973;SDS011;23796;51.458;7.000;2022-08-24T05:35:46;11.73;;;4.55;;
37973;SDS011;23796;51.458;7.000;2022-08-24T05:38:16;9.70;;;4.55;;
37973;SDS011;23796;51.458;7.000;2022-08-24T05:40:42;11.57;;;4.38;;
37973;SDS011;23796;51.458;7.000;2022-08-24T05:43:10;7.72;;;4.00;;
37973;SDS011;23796;51.458;7.000;2022-08-24T05:45:35;10.50;;;4.05;;
37973;SDS011;23796;51.458;7.000;2022-08-24T05:50:36;12.13;;;5.20;;
37973;SDS011;23796;51.458;7.000;2022-08-24T05:53:04;11.05;;;4.97;;
37973;SDS011;23796;51.458;7.000;2022-08-24T05:55:29;13.73;;;4.65;;
37973;SDS011;23796;51.458;7.000;2022-08-24T05:57:55;12.68;;;4.68;;
37973;SDS011;23796;51.458;7.000;2022-08-24T06:00:21;10.77;;;4.43;;
37973;SDS011;23796;51.458;7.000;2022-08-24T06:02:49;9.20;;;4.25;;
37973;SDS011;23796;51.458;7.000;2022-08-24T06:05:18;8.68;;;3.80;;
37973;SDS011;23796;51.458;7.000;2022-08-24T06:07:43;12.07;;;4.53;;
37973;SDS011;23796;51.458;7.000;2022-08-24T06:10:09;10.43;;;4.10;;
37973;SDS011;23796;51.458;7.000;2022-08-24T06:12:37;11.57;;;4.35;;
37973;SDS011;23796;51.458;7.000;2022-08-24T06:15:03;9.88;;;3.53;;
37973;SDS011;23796;51.458;7.000;2022-08-24T06:17:29;8.27;;;3.88;;
37973;SDS011;23796;51.458;7.000;2022-08-24T06:19:55;9.73;;;4.13;;
37973;SDS011;23796;51.458;7.000;2022-08-24T06:22:20;9.80;;;4.05;;
37973;SDS011;23796;51.458;7.000;2022-08-24T06:24:46;10.25;;;4.88;;
37973;SDS011;23796;51.458;7.000;2022-08-24T06:27:30;9.48;;;4.25;;
37973;SDS011;23796;51.458;7.000;2022-08-24T06:30:03;12.48;;;5.05;;
37973;SDS011;23796;51.458;7.000;2022-08-24T06:32:33;13.35;;;4.00;;
37973;SDS011;23796;51.458;7.000;2022-08-24T06:34:59;16.10;;;4.07;;
37973;SDS011;23796;51.458;7.000;2022-08-24T06:37:27;15.25;;;4.95;;
37973;SDS011;23796;51.458;7.000;2022-08-24T06:39:53;11.63;;;4.40;;
37973;SDS011;23796;51.458;7.000;2022-08-24T06:42:20;12.20;;;4.65;;
37973;SDS011;23796;51.458;7.000;2022-08-24T06:44:46;14.50;;;5.47;;
37973;SDS011;23796;51.458;7.000;2022-08-24T06:47:14;11.63;;;4.72;;
37973;SDS011;23796;51.458;7.000;2022-08-24T06:49:39;11.57;;;5.10;;
37973;SDS011;23796;51.458;7.000;2022-08-24T06:52:07;11.95;;;4.22;;
37973;SDS011;23796;51.458;7.000;2022-08-24T06:54:35;15.80;;;4.30;;
37973;SDS011;23796;51.458;7.000;2022-08-24T06:57:04;11.48;;;4.25;;
37973;SDS011;23796;51.458;7.000;2022-08-24T06:59:31;12.65;;;4.30;;
37973;SDS011;23796;51.458;7.000;2022-08-24T07:01:57;11.45;;;4.50;;
37973;SDS011;23796;51.458;7.000;2022-08-24T07:04:24;10.30;;;3.63;;
37973;SDS011;23796;51.458;7.000;2022-08-24T07:06:51;11.32;;;4.30;;
37973;SDS011;23796;51.458;7.000;2022-08-24T07:09:18;11.85;;;4.03;;
37973;SDS011;23796;51.458;7.000;2022-08-24T07:11:45;12.32;;;3.85;;
37973;SDS011;23796;51.458;7.000;2022-08-24T07:14:13;7.15;;;3.20;;
37973;SDS011;23796;51.458;7.000;2022-08-24T07:16:38;16.73;;;5.45;;
37973;SDS011;23796;51.458;7.000;2022-08-24T07:19:04;11.45;;;4.03;;
37973;SDS011;23796;51.458;7.000;2022-08-24T07:21:33;11.18;;;4.07;;
37973;SDS011;23796;51.458;7.000;2022-08-24T07:23:59;10.40;;;4.03;;
37973;SDS011;23796;51.458;7.000;2022-08-24T07:26:28;12.93;;;4.65;;
37973;SDS011;23796;51.458;7.000;2022-08-24T07:28:56;12.82;;;4.78;;
37973;SDS011;23796;51.458;7.000;2022-08-24T07:31:51;14.55;;;4.20;;
37973;SDS011;23796;51.458;7.000;2022-08-24T07:34:18;8.00;;;3.47;;
37973;SDS011;23796;51.458;7.000;2022-08-24T07:36:44;9.98;;;4.38;;
37973;SDS011;23796;51.458;7.000;2022-08-24T07:39:12;9.98;;;5.43;;
37973;SDS011;23796;51.458;7.000;2022-08-24T07:41:39;7.80;;;4.50;;
37973;SDS011;23796;51.458;7.000;2022-08-24T07:44:06;11.13;;;4.20;;
37973;SDS011;23796;51.458;7.000;2022-08-24T07:46:33;11.50;;;4.07;;
37973;SDS011;23796;51.458;7.000;2022-08-24T07:49:07;10.25;;;4.25;;
37973;SDS011;23796;51.458;7.000;2022-08-24T07:51:39;13.23;;;4.63;;
37973;SDS011;23796;51.458;7.000;2022-08-24T07:54:05;12.60;;;5.32;;
37973;SDS011;23796;51.458;7.000;2022-08-24T07:56:32;16.08;;;5.50;;
37973;SDS011;23796;51.458;7.000;2022-08-24T07:59:01;10.45;;;5.38;;
37973;SDS011;23796;51.458;7.000;2022-08-24T08:01:26;14.32;;;5.90;;
37973;SDS011;23796;51.458;7.000;2022-08-24T08:03:52;14.40;;;5.93;;
37973;SDS011;23796;51.458;7.000;2022-08-24T08:06:18;15.95;;;6.10;;
37973;SDS011;23796;51.458;7.000;2022-08-24T08:08:44;10.23;;;6.15;;
37973;SDS011;23796;51.458;7.000;2022-08-24T08:11:10;12.55;;;7.13;;
37973;SDS011;23796;51.458;7.000;2022-08-24T08:13:36;11.38;;;6.43;;
37973;SDS011;23796;51.458;7.000;2022-08-24T08:16:04;13.38;;;5.82;;
37973;SDS011;23796;51.458;7.000;2022-08-24T08:18:30;13.52;;;5.57;;
37973;SDS011;23796;51.458;7.000;2022-08-24T08:20:56;11.85;;;5.28;;
37973;SDS011;23796;51.458;7.000;2022-08-24T08:23:22;13.77;;;5.70;;
37973;SDS011;23796;51.458;7.000;2022-08-24T08:26:18;9.93;;;5.30;;
37973;SDS011;23796;51.458;7.000;2022-08-24T08:28:45;11.98;;;5.57;;
37973;SDS011;23796;51.458;7.000;2022-08-24T08:31:11;9.27;;;4.90;;
37973;SDS011;23796;51.458;7.000;2022-08-24T08:33:37;10.93;;;5.03;;
37973;SDS011;23796;51.458;7.000;2022-08-24T08:38:31;11.02;;;4.25;;
37973;SDS011;23796;51.458;7.000;2022-08-24T08:41:01;9.27;;;3.40;;
37973;SDS011;23796;51.458;7.000;2022-08-24T08:43:47;6.07;;;3.75;;
37973;SDS011;23796;51.458;7.000;2022-08-24T08:49:09;11.23;;;3.92;;
37973;SDS011;23796;51.458;7.000;2022-08-24T08:54:45;7.22;;;3.15;;
37973;SDS011;23796;51.458;7.000;2022-08-24T09:11:30;7.53;;;2.80;;
37973;SDS011;23796;51.458;7.000;2022-08-24T09:14:32;6.93;;;2.60;;
37973;SDS011;23796;51.458;7.000;2022-08-24T09:20:22;5.00;;;2.47;;
37973;SDS011;23796;51.458;7.000;2022-08-24T09:22:58;6.22;;;2.05;;
37973;SDS011;23796;51.458;7.000;2022-08-24T09:58:14;6.68;;;1.80;;
37973;SDS011;23796;51.458;7.000;2022-08-24T10:08:49;4.63;;;1.80;;
37973;SDS011;23796;51.458;7.000;2022-08-24T10:11:24;6.68;;;1.90;;
37973;SDS011;23796;51.458;7.000;2022-08-24T10:31:13;2.95;;;1.27;;
37973;SDS011;23796;51.458;7.000;2022-08-24T10:34:10;5.40;;;1.40;;
37973;SDS011;23796;51.458;7.000;2022-08-24T10:45:48;4.95;;;1.38;;
37973;SDS011;23796;51.458;7.000;2022-08-24T10:54:18;4.15;;;1.30;;
37973;SDS011;23796;51.458;7.000;2022-08-24T11:02:33;5.60;;;1.90;;
37973;SDS011;23796;51.458;7.000;2022-08-24T11:05:10;3.40;;;1.52;;
37973;SDS011;23796;51.458;7.000;2022-08-24T11:10:27;5.13;;;2.00;;
37973;SDS011;23796;51.458;7.000;2022-08-24T11:13:12;6.57;;;1.70;;
37973;SDS011;23796;51.458;7.000;2022-08-24T11:15:56;5.75;;;1.70;;
37973;SDS011;23796;51.458;7.000;2022-08-24T11:18:24;3.88;;;1.58;;
37973;SDS011;23796;51.458;7.000;2022-08-24T11:20:51;5.00;;;1.83;;
37973;SDS011;23796;51.458;7.000;2022-08-24T11:23:20;5.40;;;2.65;;
37973;SDS011;23796;51.458;7.000;2022-08-24T11:26:03;5.22;;;1.90;;
37973;SDS011;23796;51.458;7.000;2022-08-24T11:28:36;5.57;;;1.88;;
37973;SDS011;23796;51.458;7.000;2022-08-24T11:31:11;3.92;;;1.48;;
37973;SDS011;23796;51.458;7.000;2022-08-24T11:33:57;4.40;;;1.92;;
37973;SDS011;23796;51.458;7.000;2022-08-24T11:36:33;6.82;;;2.05;;
37973;SDS011;23796;51.458;7.000;2022-08-24T11:39:19;5.95;;;2.08;;
37973;SDS011;23796;51.458;7.000;2022-08-24T11:41:54;5.63;;;2.15;;
37973;SDS011;23796;51.458;7.000;2022-08-24T11:44:47;6.15;;;1.60;;
37973;SDS011;23796;51.458;7.000;2022-08-24T11:47:25;5.15;;;1.83;;
37973;SDS011;23796;51.458;7.000;2022-08-24T11:50:18;4.60;;;2.15;;
37973;SDS011;23796;51.458;7.000;2022-08-24T12:18:40;5.30;;;1.50;;
37973;SDS011;23796;51.458;7.000;2022-08-24T12:21:24;8.55;;;2.30;;
37973;SDS011;23796;51.458;7.000;2022-08-24T12:24:07;6.85;;;1.52;;
37973;SDS011;23796;51.458;7.000;2022-08-24T12:26:50;5.43;;;2.00;;
37973;SDS011;23796;51.458;7.000;2022-08-24T12:32:05;3.53;;;1.52;;
37973;SDS011;23796;51.458;7.000;2022-08-24T12:37:47;6.60;;;2.10;;
37973;SDS011;23796;51.458;7.000;2022-08-24T12:43:20;7.78;;;2.90;;
37973;SDS011;23796;51.458;7.000;2022-08-24T12:46:07;7.00;;;1.63;;
37973;SDS011;23796;51.458;7.000;2022-08-24T12:54:06;3.85;;;1.58;;
37973;SDS011;23796;51.458;7.000;2022-08-24T12:59:50;4.25;;;1.65;;
37973;SDS011;23796;51.458;7.000;2022-08-24T13:09:48;8.27;;;1.85;;
37973;SDS011;23796;51.458;7.000;2022-08-24T13:33:24;7.07;;;2.10;;
37973;SDS011;23796;51.458;7.000;2022-08-24T13:44:35;5.32;;;1.95;;
37973;SDS011;23796;51.458;7.000;2022-08-24T13:55:34;3.72;;;1.80;;
37973;SDS011;23796;51.458;7.000;2022-08-24T14:00:55;6.30;;;2.33;;
37973;SDS011;23796;51.458;7.000;2022-08-24T14:03:40;3.67;;;2.00;;
37973;SDS011;23796;51.458;7.000;2022-08-24T14:09:16;6.25;;;2.03;;
37973;SDS011;23796;51.458;7.000;2022-08-24T14:14:44;5.13;;;2.00;;
37973;SDS011;23796;51.458;7.000;2022-08-24T14:17:18;3.75;;;1.73;;
37973;SDS011;23796;51.458;7.000;2022-08-24T14:34:24;6.07;;;1.88;;
37973;SDS011;23796;51.458;7.000;2022-08-24T14:42:31;4.65;;;1.77;;
37973;SDS011;23796;51.458;7.000;2022-08-24T14:45:10;5.72;;;2.05;;
37973;SDS011;23796;51.458;7.000;2022-08-24T14:58:50;3.92;;;2.17;;
37973;SDS011;23796;51.458;7.000;2022-08-24T15:06:55;4.15;;;1.85;;
37973;SDS011;23796;51.458;7.000;2022-08-24T15:09:27;3.92;;;1.60;;
37973;SDS011;23796;51.458;7.000;2022-08-24T15:12:03;4.30;;;1.98;;
37973;SDS011;23796;51.458;7.000;2022-08-24T15:14:52;4.50;;;1.80;;
37973;SDS011;23796;51.458;7.000;2022-08-24T15:17:28;6.07;;;1.90;;
37973;SDS011;23796;51.458;7.000;2022-08-24T15:20:19;6.72;;;1.88;;
37973;SDS011;23796;51.458;7.000;2022-08-24T15:22:57;4.50;;;1.85;;
37973;SDS011;23796;51.458;7.000;2022-08-24T15:25:41;7.13;;;2.47;;
37973;SDS011;23796;51.458;7.000;2022-08-24T15:30:58;3.67;;;2.10;;
37973;SDS011;23796;51.458;7.000;2022-08-24T15:33:31;3.55;;;1.90;;
37973;SDS011;23796;51.458;7.000;2022-08-24T15:38:32;5.05;;;1.95;;
37973;SDS011;23796;51.458;7.000;2022-08-24T15:46:30;6.20;;;1.92;;
37973;SDS011;23796;51.458;7.000;2022-08-24T15:49:05;4.75;;;1.83;;
37973;SDS011;23796;51.458;7.000;2022-08-24T15:51:58;3.38;;;1.73;;
37973;SDS011;23796;51.458;7.000;2022-08-24T15:54:36;3.53;;;1.80;;
37973;SDS011;23796;51.458;7.000;2022-08-24T16:16:01;4.55;;;2.10;;
37973;SDS011;23796;51.458;7.000;2022-08-24T16:19:06;4.70;;;1.87;;
37973;SDS011;23796;51.458;7.000;2022-08-24T16:21:38;9.43;;;7.65;;
37973;SDS011;23796;51.458;7.000;2022-08-24T16:32:26;6.85;;;2.35;;
37973;SDS011;23796;51.458;7.000;2022-08-24T16:35:12;5.25;;;1.90;;
37973;SDS011;23796;51.458;7.000;2022-08-24T16:37:42;8.23;;;1.70;;
37973;SDS011;23796;51.458;7.000;2022-08-24T16:40:08;5.30;;;2.08;;
37973;SDS011;23796;51.458;7.000;2022-08-24T16:42:37;7.03;;;4.10;;
37973;SDS011;23796;51.458;7.000;2022-08-24T16:45:06;9.48;;;3.60;;
37973;SDS011;23796;51.458;7.000;2022-08-24T16:47:34;7.32;;;2.40;;
37973;SDS011;23796;51.458;7.000;2022-08-24T16:50:01;3.75;;;1.85;;
37973;SDS011;23796;51.458;7.000;2022-08-24T16:52:27;5.18;;;2.10;;
37973;SDS011;23796;51.458;7.000;2022-08-24T16:54:55;5.05;;;1.70;;
37973;SDS011;23796;51.458;7.000;2022-08-24T16:57:22;3.60;;;1.83;;
37973;SDS011;23796;51.458;7.000;2022-08-24T16:59:51;6.68;;;1.88;;
37973;SDS011;23796;51.458;7.000;2022-08-24T17:02:20;4.68;;;1.80;;
37973;SDS011;23796;51.458;7.000;2022-08-24T17:04:49;5.60;;;1.80;;
37973;SDS011;23796;51.458;7.000;2022-08-24T17:07:22;4.50;;;2.10;;
37973;SDS011;23796;51.458;7.000;2022-08-24T17:12:16;8.10;;;1.80;;
37973;SDS011;23796;51.458;7.000;2022-08-24T17:14:42;3.65;;;1.77;;
37973;SDS011;23796;51.458;7.000;2022-08-24T17:17:09;4.85;;;2.00;;
37973;SDS011;23796;51.458;7.000;2022-08-24T17:19:37;4.65;;;3.58;;
37973;SDS011;23796;51.458;7.000;2022-08-24T17:22:06;4.18;;;1.77;;
37973;SDS011;23796;51.458;7.000;2022-08-24T17:24:34;4.57;;;1.90;;
37973;SDS011;23796;51.458;7.000;2022-08-24T17:27:00;3.58;;;1.88;;
37973;SDS011;23796;51.458;7.000;2022-08-24T17:29:27;5.40;;;2.30;;
37973;SDS011;23796;51.458;7.000;2022-08-24T17:31:55;4.25;;;2.00;;
37973;SDS011;23796;51.458;7.000;2022-08-24T17:34:25;3.90;;;1.95;;
37973;SDS011;23796;51.458;7.000;2022-08-24T17:36:52;6.28;;;2.13;;
37973;SDS011;23796;51.458;7.000;2022-08-24T17:39:20;3.90;;;2.15;;
37973;SDS011;23796;51.458;7.000;2022-08-24T17:41:52;6.15;;;2.22;;
37973;SDS011;23796;51.458;7.000;2022-08-24T17:44:21;3.10;;;1.73;;
37973;SDS011;23796;51.458;7.000;2022-08-24T17:46:54;4.78;;;1.88;;
37973;SDS011;23796;51.458;7.000;2022-08-24T17:49:24;4.28;;;2.63;;
37973;SDS011;23796;51.458;7.000;2022-08-24T17:51:50;5.05;;;2.33;;
37973;SDS011;23796;51.458;7.000;2022-08-24T17:54:17;6.03;;;2.00;;
37973;SDS011;23796;51.458;7.000;2022-08-24T17:56:43;6.55;;;2.75;;
37973;SDS011;23796;51.458;7.000;2022-08-24T17:59:15;7.38;;;2.90;;
37973;SDS011;23796;51.458;7.000;2022-08-24T18:04:22;5.80;;;2.47;;
37973;SDS011;23796;51.458;7.000;2022-08-24T18:06:51;5.07;;;2.50;;
37973;SDS011;23796;51.458;7.000;2022-08-24T18:09:30;7.18;;;3.08;;
37973;SDS011;23796;51.458;7.000;2022-08-24T18:11:58;5.55;;;2.63;;
37973;SDS011;23796;51.458;7.000;2022-08-24T18:14:29;4.37;;;2.10;;
37973;SDS011;23796;51.458;7.000;2022-08-24T18:16:56;4.95;;;2.75;;
37973;SDS011;23796;51.458;7.000;2022-08-24T18:19:22;6.50;;;2.38;;
37973;SDS011;23796;51.458;7.000;2022-08-24T18:21:49;4.75;;;1.95;;
37973;SDS011;23796;51.458;7.000;2022-08-24T18:24:17;6.30;;;2.53;;
37973;SDS011;23796;51.458;7.000;2022-08-24T18:26:45;5.28;;;2.90;;
37973;SDS011;23796;51.458;7.000;2022-08-24T18:29:17;7.10;;;2.90;;
37973;SDS011;23796;51.458;7.000;2022-08-24T18:31:45;6.50;;;3.20;;
37973;SDS011;23796;51.458;7.000;2022-08-24T18:34:14;3.65;;;2.10;;
37973;SDS011;23796;51.458;7.000;2022-08-24T18:36:42;5.75;;;2.50;;
37973;SDS011;23796;51.458;7.000;2022-08-24T18:39:08;8.27;;;2.63;;
37973;SDS011;23796;51.458;7.000;2022-08-24T18:41:34;5.90;;;4.38;;
37973;SDS011;23796;51.458;7.000;2022-08-24T18:44:05;4.50;;;2.20;;
37973;SDS011;23796;51.458;7.000;2022-08-24T18:46:32;6.82;;;2.83;;
37973;SDS011;23796;51.458;7.000;2022-08-24T18:48:59;6.15;;;2.72;;
37973;SDS011;23796;51.458;7.000;2022-08-24T18:51:27;4.50;;;2.60;;
37973;SDS011;23796;51.458;7.000;2022-08-24T18:53:58;5.03;;;2.38;;
37973;SDS011;23796;51.458;7.000;2022-08-24T18:56:26;4.07;;;2.22;;
37973;SDS011;23796;51.458;7.000;2022-08-24T18:58:56;6.68;;;2.58;;
37973;SDS011;23796;51.458;7.000;2022-08-24T19:01:22;4.18;;;2.10;;
37973;SDS011;23796;51.458;7.000;2022-08-24T19:03:49;8.07;;;2.60;;
37973;SDS011;23796;51.458;7.000;2022-08-24T19:06:15;5.57;;;2.38;;
37973;SDS011;23796;51.458;7.000;2022-08-24T19:08:41;6.80;;;3.33;;
37973;SDS011;23796;51.458;7.000;2022-08-24T19:11:10;5.03;;;2.58;;
37973;SDS011;23796;51.458;7.000;2022-08-24T19:13:37;5.38;;;2.40;;
37973;SDS011;23796;51.458;7.000;2022-08-24T19:16:03;6.18;;;2.95;;
37973;SDS011;23796;51.458;7.000;2022-08-24T19:18:31;6.20;;;2.85;;
37973;SDS011;23796;51.458;7.000;2022-08-24T19:21:00;5.55;;;2.72;;
37973;SDS011;23796;51.458;7.000;2022-08-24T19:23:27;8.10;;;3.42;;
37973;SDS011;23796;51.458;7.000;2022-08-24T19:25:59;5.88;;;3.38;;
37973;SDS011;23796;51.458;7.000;2022-08-24T19:28:28;5.93;;;3.40;;
37973;SDS011;23796;51.458;7.000;2022-08-24T19:30:55;4.65;;;2.50;;
37973;SDS011;23796;51.458;7.000;2022-08-24T19:33:24;5.68;;;2.45;;
37973;SDS011;23796;51.458;7.000;2022-08-24T19:35:53;6.57;;;2.80;;
37973;SDS011;23796;51.458;7.000;2022-08-24T19:38:21;7.53;;;2.53;;
37973;SDS011;23796;51.458;7.000;2022-08-24T19:40:47;7.15;;;2.75;;
37973;SDS011;23796;51.458;7.000;2022-08-24T19:43:16;4.30;;;2.25;;
37973;SDS011;23796;51.458;7.000;2022-08-24T19:45:41;6.57;;;2.75;;
37973;SDS011;23796;51.458;7.000;2022-08-24T19:48:26;6.80;;;3.00;;
37973;SDS011;23796;51.458;7.000;2022-08-24T19:50:56;5.07;;;2.30;;
37973;SDS011;23796;51.458;7.000;2022-08-24T19:53:24;4.55;;;2.08;;
37973;SDS011;23796;51.458;7.000;2022-08-24T19:55:54;6.43;;;3.53;;
37973;SDS011;23796;51.458;7.000;2022-08-24T20:00:57;5.93;;;2.70;;